sensor_id;sensor_type;location;lat;lon;timestamp;P1;durP1;ratioP1;P2;durP2;ratioP2
15466;SDS011;7834;49.452;11.056;2023-07-02T00:00:59;2.17;;;1.95;;
15466;SDS011;7834;49.452;11.056;2023-07-02T00:03:25;2.05;;;1.60;;
15466;SDS011;7834;49.452;11.056;2023-07-02T00:05:51;2.35;;;2.15;;
15466;SDS011;7834;49.452;11.056;2023-07-02T00:08:19;2.20;;;2.00;;
15466;SDS011;7834;49.452;11.056;2023-07-02T00:10:45;2.17;;;1.98;;
15466;SDS011;7834;49.452;11.056;2023-07-02T00:13:11;3.05;;;2.33;;
15466;SDS011;7834;49.452;11.056;2023-07-02T00:15:37;2.40;;;2.20;;
15466;SDS011;7834;49.452;11.056;2023-07-02T00:18:03;2.33;;;2.13;;
15466;SDS011;7834;49.452;11.056;2023-07-02T00:20:29;2.47;;;2.28;;
15466;SDS011;7834;49.452;11.056;2023-07-02T00:22:59;3.00;;;2.70;;
15466;SDS011;7834;49.452;11.056;2023-07-02T00:25:25;2.63;;;2.35;;
15466;SDS011;7834;49.452;11.056;2023-07-02T00:27:52;3.45;;;2.83;;
15466;SDS011;7834;49.452;11.056;2023-07-02T00:30:18;2.50;;;2.30;;
15466;SDS011;7834;49.452;11.056;2023-07-02T00:32:44;3.08;;;2.78;;
15466;SDS011;7834;49.452;11.056;2023-07-02T00:35:10;2.78;;;2.58;;
15466;SDS011;7834;49.452;11.056;2023-07-02T00:37:36;3.85;;;2.80;;
15466;SDS011;7834;49.452;11.056;2023-07-02T00:40:02;4.03;;;2.67;;
15466;SDS011;7834;49.452;11.056;2023-07-02T00:42:28;4.43;;;2.70;;
15466;SDS011;7834;49.452;11.056;2023-07-02T00:44:55;2.75;;;2.50;;
15466;SDS011;7834;49.452;11.056;2023-07-02T00:47:23;3.15;;;2.85;;
15466;SDS011;7834;49.452;11.056;2023-07-02T00:49:49;3.45;;;2.92;;
15466;SDS011;7834;49.452;11.056;2023-07-02T00:52:16;4.28;;;3.10;;
15466;SDS011;7834;49.452;11.056;2023-07-02T00:54:45;2.88;;;2.67;;
15466;SDS011;7834;49.452;11.056;2023-07-02T00:57:11;3.10;;;2.90;;
15466;SDS011;7834;49.452;11.056;2023-07-02T00:59:37;3.50;;;3.20;;
15466;SDS011;7834;49.452;11.056;2023-07-02T01:02:03;3.60;;;2.78;;
15466;SDS011;7834;49.452;11.056;2023-07-02T01:04:30;4.65;;;3.17;;
15466;SDS011;7834;49.452;11.056;2023-07-02T01:06:56;2.95;;;2.75;;
15466;SDS011;7834;49.452;11.056;2023-07-02T01:09:23;4.55;;;4.15;;
15466;SDS011;7834;49.452;11.056;2023-07-02T01:11:53;16.92;;;13.52;;
15466;SDS011;7834;49.452;11.056;2023-07-02T01:14:26;3.30;;;3.05;;
15466;SDS011;7834;49.452;11.056;2023-07-02T01:16:54;3.28;;;2.97;;
15466;SDS011;7834;49.452;11.056;2023-07-02T01:19:22;3.40;;;3.10;;
15466;SDS011;7834;49.452;11.056;2023-07-02T01:21:50;3.40;;;3.10;;
15466;SDS011;7834;49.452;11.056;2023-07-02T01:24:16;3.85;;;3.13;;
15466;SDS011;7834;49.452;11.056;2023-07-02T01:26:43;3.63;;;3.30;;
15466;SDS011;7834;49.452;11.056;2023-07-02T01:29:29;3.33;;;3.03;;
15466;SDS011;7834;49.452;11.056;2023-07-02T01:31:55;3.40;;;3.10;;
15466;SDS011;7834;49.452;11.056;2023-07-02T01:34:22;2.95;;;2.75;;
15466;SDS011;7834;49.452;11.056;2023-07-02T01:36:48;2.90;;;2.70;;
15466;SDS011;7834;49.452;11.056;2023-07-02T01:39:14;3.28;;;2.80;;
15466;SDS011;7834;49.452;11.056;2023-07-02T01:44:09;3.20;;;3.00;;
15466;SDS011;7834;49.452;11.056;2023-07-02T01:46:36;3.10;;;2.90;;
15466;SDS011;7834;49.452;11.056;2023-07-02T01:49:02;3.20;;;2.90;;
15466;SDS011;7834;49.452;11.056;2023-07-02T01:51:28;3.92;;;2.80;;
15466;SDS011;7834;49.452;11.056;2023-07-02T01:53:54;3.22;;;2.83;;
15466;SDS011;7834;49.452;11.056;2023-07-02T01:56:20;2.97;;;2.67;;
15466;SDS011;7834;49.452;11.056;2023-07-02T01:58:46;3.10;;;2.90;;
15466;SDS011;7834;49.452;11.056;2023-07-02T02:01:12;3.10;;;2.90;;
15466;SDS011;7834;49.452;11.056;2023-07-02T02:03:41;2.95;;;2.67;;
15466;SDS011;7834;49.452;11.056;2023-07-02T02:06:07;4.50;;;3.03;;
15466;SDS011;7834;49.452;11.056;2023-07-02T02:08:33;3.40;;;3.10;;
15466;SDS011;7834;49.452;11.056;2023-07-02T02:10:59;3.25;;;3.03;;
15466;SDS011;7834;49.452;11.056;2023-07-02T02:13:25;3.42;;;3.13;;
15466;SDS011;7834;49.452;11.056;2023-07-02T02:15:54;3.20;;;2.80;;
15466;SDS011;7834;49.452;11.056;2023-07-02T02:18:20;3.30;;;3.00;;
15466;SDS011;7834;49.452;11.056;2023-07-02T02:20:46;3.60;;;2.97;;
15466;SDS011;7834;49.452;11.056;2023-07-02T02:23:12;3.60;;;2.80;;
15466;SDS011;7834;49.452;11.056;2023-07-02T02:25:38;3.10;;;2.65;;
15466;SDS011;7834;49.452;11.056;2023-07-02T02:28:04;4.18;;;2.70;;
15466;SDS011;7834;49.452;11.056;2023-07-02T02:30:30;4.07;;;2.88;;
15466;SDS011;7834;49.452;11.056;2023-07-02T02:32:56;3.22;;;2.90;;
15466;SDS011;7834;49.452;11.056;2023-07-02T02:35:22;3.10;;;2.75;;
15466;SDS011;7834;49.452;11.056;2023-07-02T02:37:48;4.00;;;2.75;;
15466;SDS011;7834;49.452;11.056;2023-07-02T02:40:14;2.97;;;2.70;;
15466;SDS011;7834;49.452;11.056;2023-07-02T02:42:40;3.08;;;2.70;;
15466;SDS011;7834;49.452;11.056;2023-07-02T02:45:06;3.58;;;2.80;;
15466;SDS011;7834;49.452;11.056;2023-07-02T02:47:33;4.22;;;2.58;;
15466;SDS011;7834;49.452;11.056;2023-07-02T02:49:59;2.85;;;2.65;;
15466;SDS011;7834;49.452;11.056;2023-07-02T02:52:27;3.45;;;2.63;;
15466;SDS011;7834;49.452;11.056;2023-07-02T02:54:53;3.30;;;2.90;;
15466;SDS011;7834;49.452;11.056;2023-07-02T02:57:20;3.10;;;2.80;;
15466;SDS011;7834;49.452;11.056;2023-07-02T02:59:46;4.05;;;2.53;;
15466;SDS011;7834;49.452;11.056;2023-07-02T03:02:12;3.05;;;2.75;;
15466;SDS011;7834;49.452;11.056;2023-07-02T03:04:38;2.83;;;2.58;;
15466;SDS011;7834;49.452;11.056;2023-07-02T03:07:09;3.05;;;2.63;;
15466;SDS011;7834;49.452;11.056;2023-07-02T03:09:35;3.88;;;2.55;;
15466;SDS011;7834;49.452;11.056;2023-07-02T03:12:01;2.80;;;2.60;;
15466;SDS011;7834;49.452;11.056;2023-07-02T03:14:27;3.90;;;2.65;;
15466;SDS011;7834;49.452;11.056;2023-07-02T03:16:53;4.45;;;2.40;;
15466;SDS011;7834;49.452;11.056;2023-07-02T03:19:19;3.60;;;2.65;;
15466;SDS011;7834;49.452;11.056;2023-07-02T03:21:45;2.97;;;2.63;;
15466;SDS011;7834;49.452;11.056;2023-07-02T03:24:11;4.28;;;2.40;;
15466;SDS011;7834;49.452;11.056;2023-07-02T03:26:41;2.60;;;2.40;;
15466;SDS011;7834;49.452;11.056;2023-07-02T03:29:07;4.13;;;2.83;;
15466;SDS011;7834;49.452;11.056;2023-07-02T03:31:33;4.40;;;2.53;;
15466;SDS011;7834;49.452;11.056;2023-07-02T03:34:01;2.95;;;2.58;;
15466;SDS011;7834;49.452;11.056;2023-07-02T03:36:27;2.72;;;2.50;;
15466;SDS011;7834;49.452;11.056;2023-07-02T03:38:53;3.55;;;2.65;;
15466;SDS011;7834;49.452;11.056;2023-07-02T03:41:19;3.28;;;2.38;;
15466;SDS011;7834;49.452;11.056;2023-07-02T03:43:45;2.30;;;2.10;;
15466;SDS011;7834;49.452;11.056;2023-07-02T03:46:12;2.95;;;2.50;;
15466;SDS011;7834;49.452;11.056;2023-07-02T03:48:39;2.78;;;2.47;;
15466;SDS011;7834;49.452;11.056;2023-07-02T03:51:05;2.83;;;2.45;;
15466;SDS011;7834;49.452;11.056;2023-07-02T03:53:31;3.38;;;2.20;;
15466;SDS011;7834;49.452;11.056;2023-07-02T03:55:58;3.50;;;2.33;;
15466;SDS011;7834;49.452;11.056;2023-07-02T03:58:24;3.83;;;2.70;;
15466;SDS011;7834;49.452;11.056;2023-07-02T04:00:50;4.57;;;2.55;;
15466;SDS011;7834;49.452;11.056;2023-07-02T04:03:16;2.80;;;2.10;;
15466;SDS011;7834;49.452;11.056;2023-07-02T04:05:42;2.70;;;2.40;;
15466;SDS011;7834;49.452;11.056;2023-07-02T04:08:08;4.20;;;2.83;;
15466;SDS011;7834;49.452;11.056;2023-07-02T04:10:34;2.88;;;2.38;;
15466;SDS011;7834;49.452;11.056;2023-07-02T04:13:01;2.38;;;2.08;;
15466;SDS011;7834;49.452;11.056;2023-07-02T04:15:27;3.45;;;2.40;;
15466;SDS011;7834;49.452;11.056;2023-07-02T04:17:53;2.97;;;2.40;;
15466;SDS011;7834;49.452;11.056;2023-07-02T04:20:19;2.08;;;1.98;;
15466;SDS011;7834;49.452;11.056;2023-07-02T04:22:45;3.78;;;2.20;;
15466;SDS011;7834;49.452;11.056;2023-07-02T04:25:12;2.67;;;2.13;;
15466;SDS011;7834;49.452;11.056;2023-07-02T04:27:41;3.53;;;2.58;;
15466;SDS011;7834;49.452;11.056;2023-07-02T04:30:08;2.95;;;2.05;;
15466;SDS011;7834;49.452;11.056;2023-07-02T04:32:35;4.18;;;2.13;;
15466;SDS011;7834;49.452;11.056;2023-07-02T04:35:01;2.75;;;2.20;;
15466;SDS011;7834;49.452;11.056;2023-07-02T04:37:27;3.80;;;2.38;;
15466;SDS011;7834;49.452;11.056;2023-07-02T04:39:53;3.00;;;1.98;;
15466;SDS011;7834;49.452;11.056;2023-07-02T04:42:19;3.17;;;2.20;;
15466;SDS011;7834;49.452;11.056;2023-07-02T04:44:45;3.80;;;2.55;;
15466;SDS011;7834;49.452;11.056;2023-07-02T04:47:11;5.65;;;2.72;;
15466;SDS011;7834;49.452;11.056;2023-07-02T04:49:38;3.15;;;2.33;;
15466;SDS011;7834;49.452;11.056;2023-07-02T04:52:04;4.88;;;2.55;;
15466;SDS011;7834;49.452;11.056;2023-07-02T04:54:30;4.55;;;2.40;;
15466;SDS011;7834;49.452;11.056;2023-07-02T04:56:56;3.65;;;2.20;;
15466;SDS011;7834;49.452;11.056;2023-07-02T04:59:24;3.00;;;2.33;;
15466;SDS011;7834;49.452;11.056;2023-07-02T05:01:50;3.13;;;2.03;;
15466;SDS011;7834;49.452;11.056;2023-07-02T05:04:16;2.70;;;2.00;;
15466;SDS011;7834;49.452;11.056;2023-07-02T05:06:42;3.50;;;2.38;;
15466;SDS011;7834;49.452;11.056;2023-07-02T05:09:08;6.35;;;2.50;;
15466;SDS011;7834;49.452;11.056;2023-07-02T05:11:34;2.50;;;2.20;;
15466;SDS011;7834;49.452;11.056;2023-07-02T05:14:00;4.45;;;2.22;;
15466;SDS011;7834;49.452;11.056;2023-07-02T05:16:26;4.13;;;2.20;;
15466;SDS011;7834;49.452;11.056;2023-07-02T05:18:52;3.42;;;2.40;;
15466;SDS011;7834;49.452;11.056;2023-07-02T05:21:21;5.15;;;2.67;;
15466;SDS011;7834;49.452;11.056;2023-07-02T05:23:48;3.72;;;2.30;;
15466;SDS011;7834;49.452;11.056;2023-07-02T05:26:14;3.88;;;2.40;;
15466;SDS011;7834;49.452;11.056;2023-07-02T05:28:40;4.03;;;2.47;;
15466;SDS011;7834;49.452;11.056;2023-07-02T05:31:06;4.07;;;2.53;;
15466;SDS011;7834;49.452;11.056;2023-07-02T05:33:32;3.25;;;2.67;;
15466;SDS011;7834;49.452;11.056;2023-07-02T05:35:58;4.40;;;2.90;;
15466;SDS011;7834;49.452;11.056;2023-07-02T05:38:24;8.70;;;3.15;;
15466;SDS011;7834;49.452;11.056;2023-07-02T05:40:51;6.03;;;3.30;;
15466;SDS011;7834;49.452;11.056;2023-07-02T05:43:17;4.22;;;3.28;;
15466;SDS011;7834;49.452;11.056;2023-07-02T05:45:43;4.15;;;3.13;;
15466;SDS011;7834;49.452;11.056;2023-07-02T05:48:09;3.25;;;2.85;;
15466;SDS011;7834;49.452;11.056;2023-07-02T05:50:35;6.00;;;3.72;;
15466;SDS011;7834;49.452;11.056;2023-07-02T05:53:01;6.15;;;3.47;;
15466;SDS011;7834;49.452;11.056;2023-07-02T05:55:27;6.35;;;3.40;;
15466;SDS011;7834;49.452;11.056;2023-07-02T05:57:53;5.05;;;3.50;;
15466;SDS011;7834;49.452;11.056;2023-07-02T06:00:19;5.32;;;3.70;;
15466;SDS011;7834;49.452;11.056;2023-07-02T06:02:46;6.07;;;3.70;;
15466;SDS011;7834;49.452;11.056;2023-07-02T06:05:13;9.02;;;3.60;;
15466;SDS011;7834;49.452;11.056;2023-07-02T06:07:39;5.72;;;4.32;;
15466;SDS011;7834;49.452;11.056;2023-07-02T06:10:05;6.47;;;4.50;;
15466;SDS011;7834;49.452;11.056;2023-07-02T06:12:31;7.80;;;4.72;;
15466;SDS011;7834;49.452;11.056;2023-07-02T06:14:57;7.05;;;5.00;;
15466;SDS011;7834;49.452;11.056;2023-07-02T06:17:23;10.10;;;6.03;;
15466;SDS011;7834;49.452;11.056;2023-07-02T06:19:50;8.77;;;5.82;;
15466;SDS011;7834;49.452;11.056;2023-07-02T06:22:16;11.52;;;6.80;;
15466;SDS011;7834;49.452;11.056;2023-07-02T06:24:42;10.52;;;6.95;;
15466;SDS011;7834;49.452;11.056;2023-07-02T06:27:08;10.02;;;6.60;;
15466;SDS011;7834;49.452;11.056;2023-07-02T06:29:34;10.18;;;6.82;;
15466;SDS011;7834;49.452;11.056;2023-07-02T06:32:00;10.63;;;6.78;;
15466;SDS011;7834;49.452;11.056;2023-07-02T06:34:26;10.20;;;6.88;;
15466;SDS011;7834;49.452;11.056;2023-07-02T06:36:52;10.75;;;6.97;;
15466;SDS011;7834;49.452;11.056;2023-07-02T06:39:18;14.55;;;7.70;;
15466;SDS011;7834;49.452;11.056;2023-07-02T06:41:44;11.88;;;7.13;;
15466;SDS011;7834;49.452;11.056;2023-07-02T06:44:10;11.18;;;7.60;;
15466;SDS011;7834;49.452;11.056;2023-07-02T06:46:36;9.68;;;7.05;;
15466;SDS011;7834;49.452;11.056;2023-07-02T06:49:02;10.95;;;8.02;;
15466;SDS011;7834;49.452;11.056;2023-07-02T06:51:28;12.80;;;7.40;;
15466;SDS011;7834;49.452;11.056;2023-07-02T06:53:54;10.82;;;7.55;;
15466;SDS011;7834;49.452;11.056;2023-07-02T06:56:21;12.07;;;8.13;;
15466;SDS011;7834;49.452;11.056;2023-07-02T06:58:47;12.52;;;7.38;;
15466;SDS011;7834;49.452;11.056;2023-07-02T07:01:13;12.65;;;7.80;;
15466;SDS011;7834;49.452;11.056;2023-07-02T07:03:39;10.98;;;7.85;;
15466;SDS011;7834;49.452;11.056;2023-07-02T07:06:05;11.45;;;7.90;;
15466;SDS011;7834;49.452;11.056;2023-07-02T07:08:31;12.63;;;8.90;;
15466;SDS011;7834;49.452;11.056;2023-07-02T07:10:57;12.23;;;8.45;;
15466;SDS011;7834;49.452;11.056;2023-07-02T07:13:23;11.38;;;8.32;;
15466;SDS011;7834;49.452;11.056;2023-07-02T07:15:49;10.20;;;7.40;;
15466;SDS011;7834;49.452;11.056;2023-07-02T07:18:15;12.25;;;7.90;;
15466;SDS011;7834;49.452;11.056;2023-07-02T07:20:43;12.52;;;8.38;;
15466;SDS011;7834;49.452;11.056;2023-07-02T07:23:09;12.25;;;8.63;;
15466;SDS011;7834;49.452;11.056;2023-07-02T07:25:35;10.73;;;8.13;;
15466;SDS011;7834;49.452;11.056;2023-07-02T07:28:01;10.85;;;8.20;;
15466;SDS011;7834;49.452;11.056;2023-07-02T07:30:27;11.18;;;7.78;;
15466;SDS011;7834;49.452;11.056;2023-07-02T07:32:53;12.15;;;8.23;;
15466;SDS011;7834;49.452;11.056;2023-07-02T07:35:20;12.35;;;7.57;;
15466;SDS011;7834;49.452;11.056;2023-07-02T07:37:46;12.45;;;8.60;;
15466;SDS011;7834;49.452;11.056;2023-07-02T07:40:13;11.55;;;7.70;;
15466;SDS011;7834;49.452;11.056;2023-07-02T07:42:39;11.18;;;8.05;;
15466;SDS011;7834;49.452;11.056;2023-07-02T07:45:06;12.18;;;8.43;;
15466;SDS011;7834;49.452;11.056;2023-07-02T07:47:32;11.63;;;7.80;;
15466;SDS011;7834;49.452;11.056;2023-07-02T07:49:58;13.38;;;8.20;;
15466;SDS011;7834;49.452;11.056;2023-07-02T07:52:24;13.65;;;8.50;;
15466;SDS011;7834;49.452;11.056;2023-07-02T07:54:50;11.93;;;7.90;;
15466;SDS011;7834;49.452;11.056;2023-07-02T07:57:16;11.02;;;7.07;;
15466;SDS011;7834;49.452;11.056;2023-07-02T07:59:42;11.88;;;7.80;;
15466;SDS011;7834;49.452;11.056;2023-07-02T08:02:08;10.20;;;7.03;;
15466;SDS011;7834;49.452;11.056;2023-07-02T08:04:34;11.63;;;7.97;;
15466;SDS011;7834;49.452;11.056;2023-07-02T08:07:00;7.70;;;6.38;;
15466;SDS011;7834;49.452;11.056;2023-07-02T08:09:29;8.93;;;6.93;;
15466;SDS011;7834;49.452;11.056;2023-07-02T08:11:55;9.05;;;6.90;;
15466;SDS011;7834;49.452;11.056;2023-07-02T08:14:21;8.57;;;5.90;;
15466;SDS011;7834;49.452;11.056;2023-07-02T08:16:47;8.25;;;5.53;;
15466;SDS011;7834;49.452;11.056;2023-07-02T08:19:13;7.97;;;5.68;;
15466;SDS011;7834;49.452;11.056;2023-07-02T08:21:39;12.50;;;5.10;;
15466;SDS011;7834;49.452;11.056;2023-07-02T08:24:05;8.88;;;4.75;;
15466;SDS011;7834;49.452;11.056;2023-07-02T08:26:31;7.75;;;5.43;;
15466;SDS011;7834;49.452;11.056;2023-07-02T08:28:57;9.05;;;4.95;;
15466;SDS011;7834;49.452;11.056;2023-07-02T08:31:23;7.25;;;4.93;;
15466;SDS011;7834;49.452;11.056;2023-07-02T08:33:49;8.35;;;5.05;;
15466;SDS011;7834;49.452;11.056;2023-07-02T08:36:15;6.43;;;4.88;;
15466;SDS011;7834;49.452;11.056;2023-07-02T08:38:41;6.75;;;5.20;;
15466;SDS011;7834;49.452;11.056;2023-07-02T08:41:08;7.78;;;4.88;;
15466;SDS011;7834;49.452;11.056;2023-07-02T08:43:34;8.98;;;4.97;;
15466;SDS011;7834;49.452;11.056;2023-07-02T08:46:01;10.32;;;4.82;;
15466;SDS011;7834;49.452;11.056;2023-07-02T08:48:28;7.88;;;4.82;;
15466;SDS011;7834;49.452;11.056;2023-07-02T08:50:57;7.05;;;4.25;;
15466;SDS011;7834;49.452;11.056;2023-07-02T08:53:23;5.45;;;4.60;;
15466;SDS011;7834;49.452;11.056;2023-07-02T08:55:58;9.75;;;5.18;;
15466;SDS011;7834;49.452;11.056;2023-07-02T08:58:24;7.22;;;5.05;;
15466;SDS011;7834;49.452;11.056;2023-07-02T09:01:06;7.18;;;5.30;;
15466;SDS011;7834;49.452;11.056;2023-07-02T09:03:32;8.50;;;5.03;;
15466;SDS011;7834;49.452;11.056;2023-07-02T09:05:58;6.32;;;4.90;;
15466;SDS011;7834;49.452;11.056;2023-07-02T09:08:25;11.07;;;4.65;;
15466;SDS011;7834;49.452;11.056;2023-07-02T09:10:51;4.78;;;3.60;;
15466;SDS011;7834;49.452;11.056;2023-07-02T09:13:17;5.07;;;4.22;;
15466;SDS011;7834;49.452;11.056;2023-07-02T09:15:43;8.20;;;4.75;;
15466;SDS011;7834;49.452;11.056;2023-07-02T09:20:42;7.85;;;4.72;;
15466;SDS011;7834;49.452;11.056;2023-07-02T09:23:08;7.97;;;4.30;;
15466;SDS011;7834;49.452;11.056;2023-07-02T09:25:36;7.82;;;4.38;;
15466;SDS011;7834;49.452;11.056;2023-07-02T09:28:13;5.38;;;4.20;;
15466;SDS011;7834;49.452;11.056;2023-07-02T09:30:48;5.95;;;4.13;;
15466;SDS011;7834;49.452;11.056;2023-07-02T09:33:15;7.78;;;4.15;;
15466;SDS011;7834;49.452;11.056;2023-07-02T09:35:41;7.82;;;4.10;;
15466;SDS011;7834;49.452;11.056;2023-07-02T09:38:09;5.20;;;4.20;;
15466;SDS011;7834;49.452;11.056;2023-07-02T09:40:36;8.32;;;4.25;;
15466;SDS011;7834;49.452;11.056;2023-07-02T09:43:03;6.05;;;4.30;;
15466;SDS011;7834;49.452;11.056;2023-07-02T09:45:30;6.40;;;4.25;;
15466;SDS011;7834;49.452;11.056;2023-07-02T09:47:56;6.72;;;4.25;;
15466;SDS011;7834;49.452;11.056;2023-07-02T09:50:22;5.65;;;4.35;;
15466;SDS011;7834;49.452;11.056;2023-07-02T09:52:49;6.30;;;4.82;;
15466;SDS011;7834;49.452;11.056;2023-07-02T09:55:16;5.28;;;4.53;;
15466;SDS011;7834;49.452;11.056;2023-07-02T09:57:45;6.95;;;4.53;;
15466;SDS011;7834;49.452;11.056;2023-07-02T10:00:11;5.28;;;4.78;;
15466;SDS011;7834;49.452;11.056;2023-07-02T10:02:37;6.20;;;4.28;;
15466;SDS011;7834;49.452;11.056;2023-07-02T10:05:03;5.68;;;4.18;;
15466;SDS011;7834;49.452;11.056;2023-07-02T10:07:30;5.80;;;5.00;;
15466;SDS011;7834;49.452;11.056;2023-07-02T10:09:57;7.15;;;4.47;;
15466;SDS011;7834;49.452;11.056;2023-07-02T10:12:27;6.78;;;4.35;;
15466;SDS011;7834;49.452;11.056;2023-07-02T10:14:54;10.73;;;5.35;;
15466;SDS011;7834;49.452;11.056;2023-07-02T10:19:54;12.93;;;5.05;;
15466;SDS011;7834;49.452;11.056;2023-07-02T10:22:20;8.73;;;5.00;;
15466;SDS011;7834;49.452;11.056;2023-07-02T10:24:50;8.98;;;5.20;;
15466;SDS011;7834;49.452;11.056;2023-07-02T10:27:17;8.60;;;5.70;;
15466;SDS011;7834;49.452;11.056;2023-07-02T10:29:49;7.38;;;5.68;;
15466;SDS011;7834;49.452;11.056;2023-07-02T10:32:28;7.13;;;5.28;;
15466;SDS011;7834;49.452;11.056;2023-07-02T10:34:54;6.10;;;5.50;;
15466;SDS011;7834;49.452;11.056;2023-07-02T10:37:20;6.95;;;5.55;;
15466;SDS011;7834;49.452;11.056;2023-07-02T10:39:46;6.20;;;5.60;;
15466;SDS011;7834;49.452;11.056;2023-07-02T10:42:13;7.32;;;5.25;;
15466;SDS011;7834;49.452;11.056;2023-07-02T10:44:49;5.85;;;4.90;;
15466;SDS011;7834;49.452;11.056;2023-07-02T10:47:16;7.75;;;5.65;;
15466;SDS011;7834;49.452;11.056;2023-07-02T10:49:42;7.00;;;5.53;;
15466;SDS011;7834;49.452;11.056;2023-07-02T10:52:08;6.65;;;5.07;;
15466;SDS011;7834;49.452;11.056;2023-07-02T10:54:44;7.50;;;5.20;;
15466;SDS011;7834;49.452;11.056;2023-07-02T10:57:12;7.47;;;5.50;;
15466;SDS011;7834;49.452;11.056;2023-07-02T10:59:38;7.60;;;5.60;;
15466;SDS011;7834;49.452;11.056;2023-07-02T11:02:04;6.85;;;4.80;;
15466;SDS011;7834;49.452;11.056;2023-07-02T11:04:31;6.70;;;5.55;;
15466;SDS011;7834;49.452;11.056;2023-07-02T11:06:58;7.32;;;4.90;;
15466;SDS011;7834;49.452;11.056;2023-07-02T11:09:24;6.70;;;5.53;;
15466;SDS011;7834;49.452;11.056;2023-07-02T11:11:54;6.70;;;5.70;;
15466;SDS011;7834;49.452;11.056;2023-07-02T11:16:55;9.48;;;6.25;;
15466;SDS011;7834;49.452;11.056;2023-07-02T11:19:22;11.27;;;6.50;;
15466;SDS011;7834;49.452;11.056;2023-07-02T11:21:51;7.13;;;6.28;;
15466;SDS011;7834;49.452;11.056;2023-07-02T11:24:26;10.50;;;5.95;;
15466;SDS011;7834;49.452;11.056;2023-07-02T11:26:53;9.43;;;6.63;;
15466;SDS011;7834;49.452;11.056;2023-07-02T11:29:19;7.97;;;6.28;;
15466;SDS011;7834;49.452;11.056;2023-07-02T11:31:45;9.68;;;7.05;;
15466;SDS011;7834;49.452;11.056;2023-07-02T11:34:15;8.18;;;5.63;;
15466;SDS011;7834;49.452;11.056;2023-07-02T11:36:41;9.82;;;6.72;;
15466;SDS011;7834;49.452;11.056;2023-07-02T11:39:07;12.90;;;7.63;;
15466;SDS011;7834;49.452;11.056;2023-07-02T11:41:37;8.70;;;7.03;;
15466;SDS011;7834;49.452;11.056;2023-07-02T11:44:03;10.40;;;7.32;;
15466;SDS011;7834;49.452;11.056;2023-07-02T11:46:29;10.85;;;7.43;;
15466;SDS011;7834;49.452;11.056;2023-07-02T11:48:55;10.57;;;7.13;;
15466;SDS011;7834;49.452;11.056;2023-07-02T11:51:21;8.25;;;6.57;;
15466;SDS011;7834;49.452;11.056;2023-07-02T11:53:47;11.02;;;7.90;;
15466;SDS011;7834;49.452;11.056;2023-07-02T11:56:13;10.63;;;8.27;;
15466;SDS011;7834;49.452;11.056;2023-07-02T11:58:40;13.48;;;8.48;;
15466;SDS011;7834;49.452;11.056;2023-07-02T12:01:06;11.38;;;8.43;;
15466;SDS011;7834;49.452;11.056;2023-07-02T12:03:32;12.10;;;8.70;;
15466;SDS011;7834;49.452;11.056;2023-07-02T12:05:58;13.02;;;9.25;;
15466;SDS011;7834;49.452;11.056;2023-07-02T12:08:24;14.68;;;9.52;;
15466;SDS011;7834;49.452;11.056;2023-07-02T12:10:50;12.82;;;8.98;;
15466;SDS011;7834;49.452;11.056;2023-07-02T12:13:16;13.32;;;9.75;;
15466;SDS011;7834;49.452;11.056;2023-07-02T12:15:42;15.80;;;10.13;;
15466;SDS011;7834;49.452;11.056;2023-07-02T12:18:09;15.45;;;10.05;;
15466;SDS011;7834;49.452;11.056;2023-07-02T12:20:35;18.52;;;9.93;;
15466;SDS011;7834;49.452;11.056;2023-07-02T12:23:03;16.20;;;10.32;;
15466;SDS011;7834;49.452;11.056;2023-07-02T12:25:30;12.77;;;9.98;;
15466;SDS011;7834;49.452;11.056;2023-07-02T12:27:56;16.70;;;11.93;;
15466;SDS011;7834;49.452;11.056;2023-07-02T12:30:22;14.63;;;10.50;;
15466;SDS011;7834;49.452;11.056;2023-07-02T12:32:48;13.70;;;10.32;;
15466;SDS011;7834;49.452;11.056;2023-07-02T12:35:14;14.27;;;10.27;;
15466;SDS011;7834;49.452;11.056;2023-07-02T12:37:44;19.92;;;14.27;;
15466;SDS011;7834;49.452;11.056;2023-07-02T12:40:10;14.18;;;10.25;;
15466;SDS011;7834;49.452;11.056;2023-07-02T12:42:36;13.80;;;10.00;;
15466;SDS011;7834;49.452;11.056;2023-07-02T12:45:03;16.33;;;10.00;;
15466;SDS011;7834;49.452;11.056;2023-07-02T12:47:29;16.95;;;9.85;;
15466;SDS011;7834;49.452;11.056;2023-07-02T12:49:55;13.95;;;10.07;;
15466;SDS011;7834;49.452;11.056;2023-07-02T12:52:21;17.40;;;9.95;;
15466;SDS011;7834;49.452;11.056;2023-07-02T12:54:47;12.40;;;9.80;;
15466;SDS011;7834;49.452;11.056;2023-07-02T12:57:13;31.85;;;23.58;;
15466;SDS011;7834;49.452;11.056;2023-07-02T12:59:39;18.10;;;13.60;;
15466;SDS011;7834;49.452;11.056;2023-07-02T13:02:06;17.17;;;9.70;;
15466;SDS011;7834;49.452;11.056;2023-07-02T13:04:32;13.15;;;10.05;;
15466;SDS011;7834;49.452;11.056;2023-07-02T13:06:58;13.95;;;9.85;;
15466;SDS011;7834;49.452;11.056;2023-07-02T13:09:24;13.63;;;9.65;;
15466;SDS011;7834;49.452;11.056;2023-07-02T13:11:50;14.35;;;9.70;;
15466;SDS011;7834;49.452;11.056;2023-07-02T13:14:16;16.33;;;10.40;;
15466;SDS011;7834;49.452;11.056;2023-07-02T13:16:42;13.93;;;9.77;;
15466;SDS011;7834;49.452;11.056;2023-07-02T13:19:08;13.13;;;9.85;;
15466;SDS011;7834;49.452;11.056;2023-07-02T13:21:34;16.58;;;10.65;;
15466;SDS011;7834;49.452;11.056;2023-07-02T13:24:00;14.50;;;9.60;;
15466;SDS011;7834;49.452;11.056;2023-07-02T13:26:26;12.30;;;9.45;;
15466;SDS011;7834;49.452;11.056;2023-07-02T13:28:52;14.10;;;10.43;;
15466;SDS011;7834;49.452;11.056;2023-07-02T13:31:19;15.48;;;11.07;;
15466;SDS011;7834;49.452;11.056;2023-07-02T13:33:45;14.30;;;10.55;;
15466;SDS011;7834;49.452;11.056;2023-07-02T13:36:11;15.18;;;11.35;;
15466;SDS011;7834;49.452;11.056;2023-07-02T13:38:38;15.32;;;11.65;;
15466;SDS011;7834;49.452;11.056;2023-07-02T13:41:04;15.45;;;11.23;;
15466;SDS011;7834;49.452;11.056;2023-07-02T13:43:30;13.52;;;10.73;;
15466;SDS011;7834;49.452;11.056;2023-07-02T13:45:56;14.57;;;11.00;;
15466;SDS011;7834;49.452;11.056;2023-07-02T13:48:22;14.95;;;11.60;;
15466;SDS011;7834;49.452;11.056;2023-07-02T13:50:48;14.30;;;11.15;;
15466;SDS011;7834;49.452;11.056;2023-07-02T13:53:14;14.07;;;10.95;;
15466;SDS011;7834;49.452;11.056;2023-07-02T13:55:40;17.48;;;12.48;;
15466;SDS011;7834;49.452;11.056;2023-07-02T13:58:06;18.67;;;12.43;;
15466;SDS011;7834;49.452;11.056;2023-07-02T14:00:32;18.67;;;12.88;;
15466;SDS011;7834;49.452;11.056;2023-07-02T14:02:58;18.70;;;13.63;;
15466;SDS011;7834;49.452;11.056;2023-07-02T14:05:24;18.90;;;13.90;;
15466;SDS011;7834;49.452;11.056;2023-07-02T14:07:50;21.85;;;16.10;;
15466;SDS011;7834;49.452;11.056;2023-07-02T14:10:17;18.33;;;15.25;;
15466;SDS011;7834;49.452;11.056;2023-07-02T14:12:43;22.40;;;15.70;;
15466;SDS011;7834;49.452;11.056;2023-07-02T14:15:09;21.75;;;15.98;;
15466;SDS011;7834;49.452;11.056;2023-07-02T14:17:35;18.23;;;14.60;;
15466;SDS011;7834;49.452;11.056;2023-07-02T14:20:02;16.88;;;13.73;;
15466;SDS011;7834;49.452;11.056;2023-07-02T14:22:29;18.50;;;14.65;;
15466;SDS011;7834;49.452;11.056;2023-07-02T14:24:55;19.15;;;14.60;;
15466;SDS011;7834;49.452;11.056;2023-07-02T14:27:21;19.65;;;13.80;;
15466;SDS011;7834;49.452;11.056;2023-07-02T14:29:47;17.40;;;13.27;;
15466;SDS011;7834;49.452;11.056;2023-07-02T14:32:13;19.85;;;13.80;;
15466;SDS011;7834;49.452;11.056;2023-07-02T14:34:39;17.98;;;13.82;;
15466;SDS011;7834;49.452;11.056;2023-07-02T14:37:06;17.90;;;13.88;;
15466;SDS011;7834;49.452;11.056;2023-07-02T14:39:32;18.90;;;13.43;;
15466;SDS011;7834;49.452;11.056;2023-07-02T14:41:58;20.05;;;13.68;;
15466;SDS011;7834;49.452;11.056;2023-07-02T14:44:24;19.77;;;14.18;;
15466;SDS011;7834;49.452;11.056;2023-07-02T14:46:50;17.95;;;13.30;;